Pagrindinis puslapis
METAR-TAF:

METAR-TAF

Oro uostai :

Dhahran, Saudo Arabija

platuma: 26-16N, ilguma: 050-09E, Aukštis: 26 m

Dabartinis oras

Ataskaita buvo paskelbta 47 minutes, ne 17:00 UTC
Ramus vėjas
Temperatūra 20°C
Drėgmė 64%
Slėgis 1014 hPa
Matomumas 10 km arba daugiau
Išsisklaidę debesys ne aukštis 3000 ft

METAR: OEDR 221700Z 00000KT 9999 SCT030 20/13 Q1014 NOSIG

Laikas: 20:47 (17:47 UTC)

Prognozė

Ataskaita buvo paskelbta 2 valandos ir 47 minutes, ne 15:00 UTC
Prognozė galioja nuo 22 metu 18 UTC su 23 metu 24 UTC
Vėjas 14 kt iš Šiaurės/Šiaurės Vakarų
Matomumas: 7000 m
Išsisklaidę debesys ne aukštis 4000 ft
Su prošvaistėmis ne aukštis 8000 ft
Laikinai
nuo 23 metu 03 UTC su 23 metu 12 UTC
Matomumas: 5000 m
Su prošvaistėmis ne aukštis 4000 ft
Apsiniaukę ne aukštis 8000 ft
lietus

TAF: OEDR 221500Z 2218/2324 33014KT 7000 SCT040 BKN080 TEMPO 2303/2312 5000 RA BKN040 OVC080

Orai ataskaitas ir orų prognozės (METAR, TAF).

turimą stotys yra geltonos ir raudonos taškus žemėlapyje.

Perkelti pele per norėdami pamatyti stoties vardą.

Tada spustelėkite, norėdami matyti oro stebėjimo ir prognozės.

Norėdami pakeisti žemėlapį: spustelėkite ant žalios mygtukų su juodo kryžiaus žemyn,; žalią mygtuką su brūkšneliu, jei norite nutolinti; arba žalių rodyklių gretimoms žemėlapius.


METAR-TAF: